sensor_id;sensor_type;location;lat;lon;timestamp;P1;durP1;ratioP1;P2;durP2;ratioP2
48963;SDS011;34776;48.180;16.420;2024-02-26T00:02:18;4.00;;;2.05;;
48963;SDS011;34776;48.180;16.420;2024-02-26T00:04:43;6.32;;;2.92;;
48963;SDS011;34776;48.180;16.420;2024-02-26T00:07:09;4.40;;;2.40;;
48963;SDS011;34776;48.180;16.420;2024-02-26T00:09:34;4.15;;;2.60;;
48963;SDS011;34776;48.180;16.420;2024-02-26T00:12:04;5.25;;;3.10;;
48963;SDS011;34776;48.180;16.420;2024-02-26T00:14:30;5.13;;;2.72;;
48963;SDS011;34776;48.180;16.420;2024-02-26T00:16:56;3.30;;;2.38;;
48963;SDS011;34776;48.180;16.420;2024-02-26T00:19:22;4.80;;;2.90;;
48963;SDS011;34776;48.180;16.420;2024-02-26T00:21:47;4.43;;;2.47;;
48963;SDS011;34776;48.180;16.420;2024-02-26T00:24:12;4.38;;;2.67;;
48963;SDS011;34776;48.180;16.420;2024-02-26T00:26:38;6.60;;;2.90;;
48963;SDS011;34776;48.180;16.420;2024-02-26T00:29:03;8.63;;;2.90;;
48963;SDS011;34776;48.180;16.420;2024-02-26T00:31:29;5.18;;;2.47;;
48963;SDS011;34776;48.180;16.420;2024-02-26T00:33:54;4.72;;;2.72;;
48963;SDS011;34776;48.180;16.420;2024-02-26T00:36:20;5.07;;;2.40;;
48963;SDS011;34776;48.180;16.420;2024-02-26T00:38:47;6.00;;;2.60;;
48963;SDS011;34776;48.180;16.420;2024-02-26T00:41:16;6.53;;;2.90;;
48963;SDS011;34776;48.180;16.420;2024-02-26T00:43:43;5.95;;;2.88;;
48963;SDS011;34776;48.180;16.420;2024-02-26T00:46:08;5.80;;;3.28;;
48963;SDS011;34776;48.180;16.420;2024-02-26T00:48:33;4.15;;;2.80;;
48963;SDS011;34776;48.180;16.420;2024-02-26T00:50:59;6.93;;;3.33;;
48963;SDS011;34776;48.180;16.420;2024-02-26T00:53:24;6.13;;;3.20;;
48963;SDS011;34776;48.180;16.420;2024-02-26T00:55:50;4.45;;;2.95;;
48963;SDS011;34776;48.180;16.420;2024-02-26T00:58:15;4.88;;;3.03;;
48963;SDS011;34776;48.180;16.420;2024-02-26T01:00:41;4.68;;;2.95;;
48963;SDS011;34776;48.180;16.420;2024-02-26T01:03:08;4.80;;;2.53;;
48963;SDS011;34776;48.180;16.420;2024-02-26T01:05:34;5.43;;;2.92;;
48963;SDS011;34776;48.180;16.420;2024-02-26T01:08:01;7.13;;;2.60;;
48963;SDS011;34776;48.180;16.420;2024-02-26T01:10:26;5.32;;;3.97;;
48963;SDS011;34776;48.180;16.420;2024-02-26T01:12:51;18.88;;;8.48;;
48963;SDS011;34776;48.180;16.420;2024-02-26T01:15:17;11.00;;;7.10;;
48963;SDS011;34776;48.180;16.420;2024-02-26T01:17:44;12.02;;;5.32;;
48963;SDS011;34776;48.180;16.420;2024-02-26T01:20:09;6.22;;;3.75;;
48963;SDS011;34776;48.180;16.420;2024-02-26T01:22:35;8.20;;;4.05;;
48963;SDS011;34776;48.180;16.420;2024-02-26T01:25:00;5.13;;;2.60;;
48963;SDS011;34776;48.180;16.420;2024-02-26T01:27:26;5.70;;;3.90;;
48963;SDS011;34776;48.180;16.420;2024-02-26T01:29:52;5.63;;;3.55;;
48963;SDS011;34776;48.180;16.420;2024-02-26T01:32:18;4.18;;;2.78;;
48963;SDS011;34776;48.180;16.420;2024-02-26T01:34:46;5.07;;;2.78;;
48963;SDS011;34776;48.180;16.420;2024-02-26T01:37:11;3.95;;;2.90;;
48963;SDS011;34776;48.180;16.420;2024-02-26T01:39:38;4.22;;;3.00;;
48963;SDS011;34776;48.180;16.420;2024-02-26T01:42:07;4.78;;;2.75;;
48963;SDS011;34776;48.180;16.420;2024-02-26T01:44:33;8.07;;;3.47;;
48963;SDS011;34776;48.180;16.420;2024-02-26T01:46:58;2.95;;;2.20;;
48963;SDS011;34776;48.180;16.420;2024-02-26T01:49:26;3.75;;;2.33;;
48963;SDS011;34776;48.180;16.420;2024-02-26T01:51:52;4.13;;;2.85;;
48963;SDS011;34776;48.180;16.420;2024-02-26T01:54:17;5.65;;;3.40;;
48963;SDS011;34776;48.180;16.420;2024-02-26T01:56:43;6.22;;;3.45;;
48963;SDS011;34776;48.180;16.420;2024-02-26T01:59:10;4.57;;;2.95;;
48963;SDS011;34776;48.180;16.420;2024-02-26T02:01:38;6.03;;;2.97;;
48963;SDS011;34776;48.180;16.420;2024-02-26T02:04:06;3.67;;;2.85;;
48963;SDS011;34776;48.180;16.420;2024-02-26T02:06:31;4.30;;;2.90;;
48963;SDS011;34776;48.180;16.420;2024-02-26T02:08:59;3.67;;;2.60;;
48963;SDS011;34776;48.180;16.420;2024-02-26T02:11:31;3.30;;;2.38;;
48963;SDS011;34776;48.180;16.420;2024-02-26T02:13:57;5.45;;;2.72;;
48963;SDS011;34776;48.180;16.420;2024-02-26T02:16:23;5.95;;;3.20;;
48963;SDS011;34776;48.180;16.420;2024-02-26T02:18:48;5.63;;;2.88;;
48963;SDS011;34776;48.180;16.420;2024-02-26T02:21:13;4.45;;;3.20;;
48963;SDS011;34776;48.180;16.420;2024-02-26T02:23:38;4.35;;;2.60;;
48963;SDS011;34776;48.180;16.420;2024-02-26T02:26:04;2.10;;;1.90;;
48963;SDS011;34776;48.180;16.420;2024-02-26T02:28:29;4.97;;;3.30;;
48963;SDS011;34776;48.180;16.420;2024-02-26T02:30:55;4.30;;;2.90;;
48963;SDS011;34776;48.180;16.420;2024-02-26T02:33:21;3.47;;;2.30;;
48963;SDS011;34776;48.180;16.420;2024-02-26T02:35:48;4.55;;;3.22;;
48963;SDS011;34776;48.180;16.420;2024-02-26T02:38:16;4.22;;;2.90;;
48963;SDS011;34776;48.180;16.420;2024-02-26T02:40:42;3.97;;;2.83;;
48963;SDS011;34776;48.180;16.420;2024-02-26T02:43:07;3.33;;;2.33;;
48963;SDS011;34776;48.180;16.420;2024-02-26T02:45:33;4.53;;;2.72;;
48963;SDS011;34776;48.180;16.420;2024-02-26T02:47:59;7.20;;;2.70;;
48963;SDS011;34776;48.180;16.420;2024-02-26T02:50:24;5.00;;;2.95;;
48963;SDS011;34776;48.180;16.420;2024-02-26T02:52:50;4.88;;;2.40;;
48963;SDS011;34776;48.180;16.420;2024-02-26T02:55:16;5.65;;;2.50;;
48963;SDS011;34776;48.180;16.420;2024-02-26T02:57:43;4.68;;;2.90;;
48963;SDS011;34776;48.180;16.420;2024-02-26T03:00:10;2.65;;;2.42;;
48963;SDS011;34776;48.180;16.420;2024-02-26T03:02:36;4.13;;;2.67;;
48963;SDS011;34776;48.180;16.420;2024-02-26T03:05:02;6.45;;;2.92;;
48963;SDS011;34776;48.180;16.420;2024-02-26T03:07:28;3.25;;;2.67;;
48963;SDS011;34776;48.180;16.420;2024-02-26T03:09:55;8.15;;;2.67;;
48963;SDS011;34776;48.180;16.420;2024-02-26T03:12:21;5.07;;;3.22;;
48963;SDS011;34776;48.180;16.420;2024-02-26T03:14:47;4.35;;;3.03;;
48963;SDS011;34776;48.180;16.420;2024-02-26T03:17:13;7.78;;;3.33;;
48963;SDS011;34776;48.180;16.420;2024-02-26T03:19:39;6.88;;;3.00;;
48963;SDS011;34776;48.180;16.420;2024-02-26T03:22:04;4.82;;;3.08;;
48963;SDS011;34776;48.180;16.420;2024-02-26T03:24:29;4.35;;;2.63;;
48963;SDS011;34776;48.180;16.420;2024-02-26T03:26:55;4.80;;;2.85;;
48963;SDS011;34776;48.180;16.420;2024-02-26T03:29:21;4.82;;;3.03;;
48963;SDS011;34776;48.180;16.420;2024-02-26T03:31:46;6.30;;;3.05;;
48963;SDS011;34776;48.180;16.420;2024-02-26T03:34:11;5.10;;;2.88;;
48963;SDS011;34776;48.180;16.420;2024-02-26T03:36:39;8.38;;;3.33;;
48963;SDS011;34776;48.180;16.420;2024-02-26T03:39:04;4.10;;;2.50;;
48963;SDS011;34776;48.180;16.420;2024-02-26T03:41:32;6.78;;;3.13;;
48963;SDS011;34776;48.180;16.420;2024-02-26T03:43:58;4.30;;;2.70;;
48963;SDS011;34776;48.180;16.420;2024-02-26T03:46:23;4.55;;;3.05;;
48963;SDS011;34776;48.180;16.420;2024-02-26T03:48:49;8.18;;;3.08;;
48963;SDS011;34776;48.180;16.420;2024-02-26T03:51:15;7.13;;;2.90;;
48963;SDS011;34776;48.180;16.420;2024-02-26T03:53:40;6.75;;;2.72;;
48963;SDS011;34776;48.180;16.420;2024-02-26T03:56:06;9.68;;;3.28;;
48963;SDS011;34776;48.180;16.420;2024-02-26T03:58:31;4.82;;;2.60;;
48963;SDS011;34776;48.180;16.420;2024-02-26T04:00:59;4.60;;;2.78;;
48963;SDS011;34776;48.180;16.420;2024-02-26T04:03:26;3.45;;;2.55;;
48963;SDS011;34776;48.180;16.420;2024-02-26T04:05:52;5.35;;;2.53;;
48963;SDS011;34776;48.180;16.420;2024-02-26T04:08:17;4.63;;;2.97;;
48963;SDS011;34776;48.180;16.420;2024-02-26T04:10:42;4.50;;;2.85;;
48963;SDS011;34776;48.180;16.420;2024-02-26T04:13:08;4.68;;;2.70;;
48963;SDS011;34776;48.180;16.420;2024-02-26T04:15:33;4.70;;;2.88;;
48963;SDS011;34776;48.180;16.420;2024-02-26T04:17:59;5.43;;;3.35;;
48963;SDS011;34776;48.180;16.420;2024-02-26T04:20:24;6.85;;;3.35;;
48963;SDS011;34776;48.180;16.420;2024-02-26T04:22:51;6.43;;;3.42;;
48963;SDS011;34776;48.180;16.420;2024-02-26T04:25:16;5.00;;;3.63;;
48963;SDS011;34776;48.180;16.420;2024-02-26T04:27:43;7.63;;;3.60;;
48963;SDS011;34776;48.180;16.420;2024-02-26T04:30:08;7.93;;;2.95;;
48963;SDS011;34776;48.180;16.420;2024-02-26T04:32:34;6.32;;;3.53;;
48963;SDS011;34776;48.180;16.420;2024-02-26T04:35:03;8.13;;;3.55;;
48963;SDS011;34776;48.180;16.420;2024-02-26T04:37:29;4.75;;;3.33;;
48963;SDS011;34776;48.180;16.420;2024-02-26T04:39:57;5.85;;;3.58;;
48963;SDS011;34776;48.180;16.420;2024-02-26T04:42:23;6.28;;;3.67;;
48963;SDS011;34776;48.180;16.420;2024-02-26T04:44:48;6.40;;;3.53;;
48963;SDS011;34776;48.180;16.420;2024-02-26T04:47:14;4.38;;;3.35;;
48963;SDS011;34776;48.180;16.420;2024-02-26T04:49:40;6.68;;;3.83;;
48963;SDS011;34776;48.180;16.420;2024-02-26T04:52:06;7.30;;;3.88;;
48963;SDS011;34776;48.180;16.420;2024-02-26T04:54:31;6.07;;;3.60;;
48963;SDS011;34776;48.180;16.420;2024-02-26T04:56:56;6.30;;;3.95;;
48963;SDS011;34776;48.180;16.420;2024-02-26T04:59:22;4.72;;;3.60;;
48963;SDS011;34776;48.180;16.420;2024-02-26T05:01:47;6.60;;;4.13;;
48963;SDS011;34776;48.180;16.420;2024-02-26T05:04:12;5.55;;;4.18;;
48963;SDS011;34776;48.180;16.420;2024-02-26T05:06:39;6.28;;;4.60;;
48963;SDS011;34776;48.180;16.420;2024-02-26T05:09:04;5.70;;;3.80;;
48963;SDS011;34776;48.180;16.420;2024-02-26T05:11:30;6.75;;;4.55;;
48963;SDS011;34776;48.180;16.420;2024-02-26T05:13:56;5.97;;;3.67;;
48963;SDS011;34776;48.180;16.420;2024-02-26T05:16:22;6.22;;;4.40;;
48963;SDS011;34776;48.180;16.420;2024-02-26T05:18:51;5.00;;;4.10;;
48963;SDS011;34776;48.180;16.420;2024-02-26T05:21:16;7.53;;;4.22;;
48963;SDS011;34776;48.180;16.420;2024-02-26T05:23:41;6.60;;;4.38;;
48963;SDS011;34776;48.180;16.420;2024-02-26T05:26:08;8.85;;;4.80;;
48963;SDS011;34776;48.180;16.420;2024-02-26T05:28:34;7.05;;;4.38;;
48963;SDS011;34776;48.180;16.420;2024-02-26T05:30:59;8.38;;;3.70;;
48963;SDS011;34776;48.180;16.420;2024-02-26T05:33:25;12.88;;;3.53;;
48963;SDS011;34776;48.180;16.420;2024-02-26T05:35:50;10.02;;;4.28;;
48963;SDS011;34776;48.180;16.420;2024-02-26T05:38:15;5.13;;;3.60;;
48963;SDS011;34776;48.180;16.420;2024-02-26T05:40:41;5.85;;;3.70;;
48963;SDS011;34776;48.180;16.420;2024-02-26T05:43:06;3.72;;;2.85;;
48963;SDS011;34776;48.180;16.420;2024-02-26T05:45:32;5.15;;;3.40;;
48963;SDS011;34776;48.180;16.420;2024-02-26T05:47:58;8.70;;;3.63;;
48963;SDS011;34776;48.180;16.420;2024-02-26T05:50:24;6.57;;;3.50;;
48963;SDS011;34776;48.180;16.420;2024-02-26T05:52:49;5.38;;;3.75;;
48963;SDS011;34776;48.180;16.420;2024-02-26T05:55:15;6.10;;;3.38;;
48963;SDS011;34776;48.180;16.420;2024-02-26T05:57:40;5.18;;;3.33;;
48963;SDS011;34776;48.180;16.420;2024-02-26T06:00:06;8.93;;;4.10;;
48963;SDS011;34776;48.180;16.420;2024-02-26T06:02:32;3.95;;;3.00;;
48963;SDS011;34776;48.180;16.420;2024-02-26T06:05:01;7.00;;;4.45;;
48963;SDS011;34776;48.180;16.420;2024-02-26T06:07:26;7.55;;;4.22;;
48963;SDS011;34776;48.180;16.420;2024-02-26T06:09:52;18.08;;;4.28;;
48963;SDS011;34776;48.180;16.420;2024-02-26T06:14:43;4.63;;;3.03;;
48963;SDS011;34776;48.180;16.420;2024-02-26T06:17:08;5.38;;;3.88;;
48963;SDS011;34776;48.180;16.420;2024-02-26T06:19:34;7.32;;;3.83;;
48963;SDS011;34776;48.180;16.420;2024-02-26T06:21:59;5.70;;;3.72;;
48963;SDS011;34776;48.180;16.420;2024-02-26T06:24:24;6.18;;;3.80;;
48963;SDS011;34776;48.180;16.420;2024-02-26T06:26:50;5.93;;;4.28;;
48963;SDS011;34776;48.180;16.420;2024-02-26T06:29:15;4.50;;;3.90;;
48963;SDS011;34776;48.180;16.420;2024-02-26T06:31:41;4.53;;;3.53;;
48963;SDS011;34776;48.180;16.420;2024-02-26T06:34:08;8.50;;;4.25;;
48963;SDS011;34776;48.180;16.420;2024-02-26T06:36:33;6.70;;;4.28;;
48963;SDS011;34776;48.180;16.420;2024-02-26T06:38:59;5.75;;;4.05;;
48963;SDS011;34776;48.180;16.420;2024-02-26T06:41:25;5.30;;;4.43;;
48963;SDS011;34776;48.180;16.420;2024-02-26T06:43:53;6.57;;;4.15;;
48963;SDS011;34776;48.180;16.420;2024-02-26T06:46:18;6.38;;;4.00;;
48963;SDS011;34776;48.180;16.420;2024-02-26T06:48:44;5.57;;;3.67;;
48963;SDS011;34776;48.180;16.420;2024-02-26T06:51:09;5.70;;;4.22;;
48963;SDS011;34776;48.180;16.420;2024-02-26T06:53:34;7.45;;;4.40;;
48963;SDS011;34776;48.180;16.420;2024-02-26T06:56:00;6.22;;;4.30;;
48963;SDS011;34776;48.180;16.420;2024-02-26T06:58:26;6.22;;;4.45;;
48963;SDS011;34776;48.180;16.420;2024-02-26T07:00:52;12.70;;;6.88;;
48963;SDS011;34776;48.180;16.420;2024-02-26T07:03:17;10.27;;;5.00;;
48963;SDS011;34776;48.180;16.420;2024-02-26T07:05:43;13.05;;;4.72;;
48963;SDS011;34776;48.180;16.420;2024-02-26T07:08:10;6.68;;;4.18;;
48963;SDS011;34776;48.180;16.420;2024-02-26T07:10:35;5.53;;;3.97;;
48963;SDS011;34776;48.180;16.420;2024-02-26T07:13:00;10.77;;;3.75;;
48963;SDS011;34776;48.180;16.420;2024-02-26T07:15:26;6.50;;;4.22;;
48963;SDS011;34776;48.180;16.420;2024-02-26T07:17:52;6.63;;;3.38;;
48963;SDS011;34776;48.180;16.420;2024-02-26T07:20:20;6.20;;;3.78;;
48963;SDS011;34776;48.180;16.420;2024-02-26T07:22:47;6.28;;;4.40;;
48963;SDS011;34776;48.180;16.420;2024-02-26T07:25:12;4.97;;;3.72;;
48963;SDS011;34776;48.180;16.420;2024-02-26T07:27:41;7.72;;;3.90;;
48963;SDS011;34776;48.180;16.420;2024-02-26T07:30:06;5.05;;;3.85;;
48963;SDS011;34776;48.180;16.420;2024-02-26T07:32:34;6.90;;;4.28;;
48963;SDS011;34776;48.180;16.420;2024-02-26T07:34:59;5.88;;;4.07;;
48963;SDS011;34776;48.180;16.420;2024-02-26T07:37:25;6.72;;;4.47;;
48963;SDS011;34776;48.180;16.420;2024-02-26T07:39:50;6.32;;;4.38;;
48963;SDS011;34776;48.180;16.420;2024-02-26T07:42:16;8.90;;;4.47;;
48963;SDS011;34776;48.180;16.420;2024-02-26T07:44:41;5.72;;;4.82;;
48963;SDS011;34776;48.180;16.420;2024-02-26T07:47:08;9.93;;;4.57;;
48963;SDS011;34776;48.180;16.420;2024-02-26T07:49:34;8.10;;;4.55;;
48963;SDS011;34776;48.180;16.420;2024-02-26T07:51:59;6.85;;;4.85;;
48963;SDS011;34776;48.180;16.420;2024-02-26T07:54:25;5.88;;;4.25;;
48963;SDS011;34776;48.180;16.420;2024-02-26T07:56:50;10.63;;;4.93;;
48963;SDS011;34776;48.180;16.420;2024-02-26T07:59:15;6.18;;;4.80;;
48963;SDS011;34776;48.180;16.420;2024-02-26T08:01:43;8.23;;;4.65;;
48963;SDS011;34776;48.180;16.420;2024-02-26T08:04:09;5.93;;;4.50;;
48963;SDS011;34776;48.180;16.420;2024-02-26T08:06:35;6.10;;;4.10;;
48963;SDS011;34776;48.180;16.420;2024-02-26T08:09:02;5.75;;;3.50;;
48963;SDS011;34776;48.180;16.420;2024-02-26T08:11:29;5.80;;;4.28;;
48963;SDS011;34776;48.180;16.420;2024-02-26T08:13:55;9.27;;;4.82;;
48963;SDS011;34776;48.180;16.420;2024-02-26T08:16:20;8.23;;;7.10;;
48963;SDS011;34776;48.180;16.420;2024-02-26T08:18:45;6.47;;;5.65;;
48963;SDS011;34776;48.180;16.420;2024-02-26T08:21:11;6.53;;;5.10;;
48963;SDS011;34776;48.180;16.420;2024-02-26T08:23:36;6.03;;;4.93;;
48963;SDS011;34776;48.180;16.420;2024-02-26T08:26:02;7.05;;;5.07;;
48963;SDS011;34776;48.180;16.420;2024-02-26T08:28:29;5.50;;;4.88;;
48963;SDS011;34776;48.180;16.420;2024-02-26T08:30:54;7.97;;;5.18;;
48963;SDS011;34776;48.180;16.420;2024-02-26T08:33:20;6.20;;;5.38;;
48963;SDS011;34776;48.180;16.420;2024-02-26T08:35:45;5.57;;;4.80;;
48963;SDS011;34776;48.180;16.420;2024-02-26T08:38:10;5.90;;;4.65;;
48963;SDS011;34776;48.180;16.420;2024-02-26T08:40:36;6.35;;;4.95;;
48963;SDS011;34776;48.180;16.420;2024-02-26T08:43:01;6.43;;;5.00;;
48963;SDS011;34776;48.180;16.420;2024-02-26T08:45:27;8.98;;;6.72;;
48963;SDS011;34776;48.180;16.420;2024-02-26T08:47:52;6.68;;;5.20;;
48963;SDS011;34776;48.180;16.420;2024-02-26T08:50:18;5.22;;;4.22;;
48963;SDS011;34776;48.180;16.420;2024-02-26T08:52:43;6.05;;;4.43;;
48963;SDS011;34776;48.180;16.420;2024-02-26T08:55:09;6.18;;;4.00;;
48963;SDS011;34776;48.180;16.420;2024-02-26T08:57:34;5.68;;;4.10;;
48963;SDS011;34776;48.180;16.420;2024-02-26T09:00:00;6.47;;;3.80;;
48963;SDS011;34776;48.180;16.420;2024-02-26T09:02:26;5.72;;;3.65;;
48963;SDS011;34776;48.180;16.420;2024-02-26T09:04:51;5.72;;;3.80;;
48963;SDS011;34776;48.180;16.420;2024-02-26T09:07:19;4.70;;;3.70;;
48963;SDS011;34776;48.180;16.420;2024-02-26T09:10:06;5.40;;;3.80;;
48963;SDS011;34776;48.180;16.420;2024-02-26T09:12:33;3.92;;;3.22;;
48963;SDS011;34776;48.180;16.420;2024-02-26T09:14:59;4.60;;;3.75;;
48963;SDS011;34776;48.180;16.420;2024-02-26T09:17:24;3.88;;;3.05;;
48963;SDS011;34776;48.180;16.420;2024-02-26T09:19:49;4.88;;;3.45;;
48963;SDS011;34776;48.180;16.420;2024-02-26T09:22:14;6.65;;;3.60;;
48963;SDS011;34776;48.180;16.420;2024-02-26T09:24:40;4.43;;;3.20;;
48963;SDS011;34776;48.180;16.420;2024-02-26T09:27:07;4.75;;;3.20;;
48963;SDS011;34776;48.180;16.420;2024-02-26T09:29:32;3.72;;;3.22;;
48963;SDS011;34776;48.180;16.420;2024-02-26T09:31:58;4.18;;;3.40;;
48963;SDS011;34776;48.180;16.420;2024-02-26T09:34:23;4.97;;;4.40;;
48963;SDS011;34776;48.180;16.420;2024-02-26T09:36:49;6.53;;;3.78;;
48963;SDS011;34776;48.180;16.420;2024-02-26T09:39:14;4.35;;;2.75;;
48963;SDS011;34776;48.180;16.420;2024-02-26T09:41:45;4.43;;;3.00;;
48963;SDS011;34776;48.180;16.420;2024-02-26T09:44:11;6.07;;;3.47;;
48963;SDS011;34776;48.180;16.420;2024-02-26T09:46:41;5.18;;;2.65;;
48963;SDS011;34776;48.180;16.420;2024-02-26T09:49:07;4.25;;;2.70;;
48963;SDS011;34776;48.180;16.420;2024-02-26T09:51:33;4.80;;;3.28;;
48963;SDS011;34776;48.180;16.420;2024-02-26T09:53:59;3.55;;;2.65;;
48963;SDS011;34776;48.180;16.420;2024-02-26T09:56:26;3.70;;;3.00;;
48963;SDS011;34776;48.180;16.420;2024-02-26T09:58:52;5.68;;;3.55;;
48963;SDS011;34776;48.180;16.420;2024-02-26T10:01:19;3.88;;;2.80;;
48963;SDS011;34776;48.180;16.420;2024-02-26T10:03:47;4.18;;;3.10;;
48963;SDS011;34776;48.180;16.420;2024-02-26T10:06:17;4.75;;;2.90;;
48963;SDS011;34776;48.180;16.420;2024-02-26T10:08:42;3.42;;;2.67;;
48963;SDS011;34776;48.180;16.420;2024-02-26T10:11:08;5.28;;;2.55;;
48963;SDS011;34776;48.180;16.420;2024-02-26T10:13:35;5.45;;;2.55;;
48963;SDS011;34776;48.180;16.420;2024-02-26T10:16:01;3.42;;;2.28;;
48963;SDS011;34776;48.180;16.420;2024-02-26T10:18:44;4.15;;;2.80;;
48963;SDS011;34776;48.180;16.420;2024-02-26T10:21:18;3.80;;;2.70;;
48963;SDS011;34776;48.180;16.420;2024-02-26T10:23:44;4.45;;;2.17;;
48963;SDS011;34776;48.180;16.420;2024-02-26T10:26:11;5.07;;;2.58;;
48963;SDS011;34776;48.180;16.420;2024-02-26T10:28:37;4.50;;;2.60;;
48963;SDS011;34776;48.180;16.420;2024-02-26T10:31:04;5.10;;;2.63;;
48963;SDS011;34776;48.180;16.420;2024-02-26T10:33:29;3.42;;;2.50;;
48963;SDS011;34776;48.180;16.420;2024-02-26T10:35:54;4.40;;;2.47;;
48963;SDS011;34776;48.180;16.420;2024-02-26T10:38:20;3.35;;;2.50;;
48963;SDS011;34776;48.180;16.420;2024-02-26T10:40:46;3.63;;;2.40;;
48963;SDS011;34776;48.180;16.420;2024-02-26T10:43:13;6.90;;;2.30;;
48963;SDS011;34776;48.180;16.420;2024-02-26T10:45:41;4.38;;;2.50;;
48963;SDS011;34776;48.180;16.420;2024-02-26T10:48:14;3.92;;;2.70;;
48963;SDS011;34776;48.180;16.420;2024-02-26T10:50:41;3.33;;;2.33;;
48963;SDS011;34776;48.180;16.420;2024-02-26T10:53:12;6.00;;;3.10;;
48963;SDS011;34776;48.180;16.420;2024-02-26T10:55:41;3.33;;;2.42;;
48963;SDS011;34776;48.180;16.420;2024-02-26T10:58:10;5.57;;;2.28;;
48963;SDS011;34776;48.180;16.420;2024-02-26T11:00:38;3.70;;;2.10;;
48963;SDS011;34776;48.180;16.420;2024-02-26T11:03:04;3.88;;;2.22;;
48963;SDS011;34776;48.180;16.420;2024-02-26T11:05:32;3.65;;;2.10;;
48963;SDS011;34776;48.180;16.420;2024-02-26T11:07:59;3.13;;;2.20;;
48963;SDS011;34776;48.180;16.420;2024-02-26T11:10:26;3.00;;;2.05;;
48963;SDS011;34776;48.180;16.420;2024-02-26T11:12:54;2.95;;;2.10;;
48963;SDS011;34776;48.180;16.420;2024-02-26T11:15:22;3.92;;;2.25;;
48963;SDS011;34776;48.180;16.420;2024-02-26T11:17:48;3.55;;;2.22;;
48963;SDS011;34776;48.180;16.420;2024-02-26T11:20:14;3.83;;;2.10;;
48963;SDS011;34776;48.180;16.420;2024-02-26T11:22:41;2.85;;;2.20;;
48963;SDS011;34776;48.180;16.420;2024-02-26T11:25:08;3.33;;;2.00;;
48963;SDS011;34776;48.180;16.420;2024-02-26T11:27:39;3.80;;;2.17;;
48963;SDS011;34776;48.180;16.420;2024-02-26T11:30:12;3.58;;;2.00;;
48963;SDS011;34776;48.180;16.420;2024-02-26T11:32:38;2.88;;;1.88;;
48963;SDS011;34776;48.180;16.420;2024-02-26T11:35:04;3.80;;;1.90;;
48963;SDS011;34776;48.180;16.420;2024-02-26T11:37:30;2.50;;;1.70;;
48963;SDS011;34776;48.180;16.420;2024-02-26T11:39:58;5.13;;;2.30;;
48963;SDS011;34776;48.180;16.420;2024-02-26T11:42:24;2.95;;;1.83;;
48963;SDS011;34776;48.180;16.420;2024-02-26T11:44:51;3.80;;;1.90;;
48963;SDS011;34776;48.180;16.420;2024-02-26T11:47:20;3.97;;;1.83;;
48963;SDS011;34776;48.180;16.420;2024-02-26T11:49:47;4.13;;;1.75;;
48963;SDS011;34776;48.180;16.420;2024-02-26T11:52:14;3.47;;;1.75;;
48963;SDS011;34776;48.180;16.420;2024-02-26T11:57:23;2.88;;;1.95;;
48963;SDS011;34776;48.180;16.420;2024-02-26T11:59:53;2.80;;;2.03;;
48963;SDS011;34776;48.180;16.420;2024-02-26T12:02:38;4.07;;;1.85;;
48963;SDS011;34776;48.180;16.420;2024-02-26T12:07:45;5.15;;;4.13;;
48963;SDS011;34776;48.180;16.420;2024-02-26T12:10:15;8.98;;;8.10;;
48963;SDS011;34776;48.180;16.420;2024-02-26T12:12:54;3.90;;;3.15;;
48963;SDS011;34776;48.180;16.420;2024-02-26T12:15:22;3.47;;;1.95;;
48963;SDS011;34776;48.180;16.420;2024-02-26T12:17:48;4.82;;;1.90;;
48963;SDS011;34776;48.180;16.420;2024-02-26T12:20:14;3.03;;;1.83;;
48963;SDS011;34776;48.180;16.420;2024-02-26T12:22:44;5.07;;;1.95;;
48963;SDS011;34776;48.180;16.420;2024-02-26T12:25:11;3.58;;;2.85;;
48963;SDS011;34776;48.180;16.420;2024-02-26T12:27:38;2.58;;;1.80;;
48963;SDS011;34776;48.180;16.420;2024-02-26T12:30:05;2.53;;;1.48;;
48963;SDS011;34776;48.180;16.420;2024-02-26T12:32:31;2.67;;;1.60;;
48963;SDS011;34776;48.180;16.420;2024-02-26T12:34:57;3.40;;;1.80;;
48963;SDS011;34776;48.180;16.420;2024-02-26T12:37:23;2.65;;;1.60;;
48963;SDS011;34776;48.180;16.420;2024-02-26T12:39:49;6.75;;;2.00;;
48963;SDS011;34776;48.180;16.420;2024-02-26T12:42:15;2.58;;;1.40;;
48963;SDS011;34776;48.180;16.420;2024-02-26T12:44:40;2.70;;;1.40;;
48963;SDS011;34776;48.180;16.420;2024-02-26T12:47:08;2.45;;;1.63;;
48963;SDS011;34776;48.180;16.420;2024-02-26T12:49:35;2.90;;;1.45;;
48963;SDS011;34776;48.180;16.420;2024-02-26T12:52:00;4.70;;;1.65;;
48963;SDS011;34776;48.180;16.420;2024-02-26T12:54:28;2.80;;;2.08;;
48963;SDS011;34776;48.180;16.420;2024-02-26T12:56:55;2.78;;;1.70;;
48963;SDS011;34776;48.180;16.420;2024-02-26T12:59:21;2.33;;;1.55;;
48963;SDS011;34776;48.180;16.420;2024-02-26T13:01:47;3.97;;;1.40;;
48963;SDS011;34776;48.180;16.420;2024-02-26T13:04:12;2.97;;;1.45;;
48963;SDS011;34776;48.180;16.420;2024-02-26T13:06:38;2.40;;;1.60;;
48963;SDS011;34776;48.180;16.420;2024-02-26T13:09:05;3.05;;;1.50;;
48963;SDS011;34776;48.180;16.420;2024-02-26T13:11:31;4.50;;;1.70;;
48963;SDS011;34776;48.180;16.420;2024-02-26T13:13:58;4.28;;;1.75;;
48963;SDS011;34776;48.180;16.420;2024-02-26T13:16:23;1.73;;;1.45;;
48963;SDS011;34776;48.180;16.420;2024-02-26T13:18:50;3.40;;;2.47;;
48963;SDS011;34776;48.180;16.420;2024-02-26T13:21:16;5.70;;;3.92;;
48963;SDS011;34776;48.180;16.420;2024-02-26T13:23:43;2.35;;;2.08;;
48963;SDS011;34776;48.180;16.420;2024-02-26T13:26:14;2.03;;;1.45;;
48963;SDS011;34776;48.180;16.420;2024-02-26T13:28:39;1.40;;;1.30;;
48963;SDS011;34776;48.180;16.420;2024-02-26T13:31:05;2.30;;;1.40;;
48963;SDS011;34776;48.180;16.420;2024-02-26T13:33:32;2.40;;;1.80;;
48963;SDS011;34776;48.180;16.420;2024-02-26T13:35:58;1.70;;;1.30;;
48963;SDS011;34776;48.180;16.420;2024-02-26T13:38:25;3.80;;;1.63;;
48963;SDS011;34776;48.180;16.420;2024-02-26T13:40:51;3.63;;;1.70;;
48963;SDS011;34776;48.180;16.420;2024-02-26T13:43:17;2.65;;;1.30;;
48963;SDS011;34776;48.180;16.420;2024-02-26T13:45:43;1.80;;;1.40;;
48963;SDS011;34776;48.180;16.420;2024-02-26T13:48:09;4.43;;;1.80;;
48963;SDS011;34776;48.180;16.420;2024-02-26T13:50:36;2.90;;;1.95;;
48963;SDS011;34776;48.180;16.420;2024-02-26T13:53:07;2.67;;;1.50;;
48963;SDS011;34776;48.180;16.420;2024-02-26T13:55:32;2.92;;;1.33;;
48963;SDS011;34776;48.180;16.420;2024-02-26T13:57:58;2.58;;;1.65;;
48963;SDS011;34776;48.180;16.420;2024-02-26T14:00:28;2.10;;;1.42;;
48963;SDS011;34776;48.180;16.420;2024-02-26T14:02:57;2.05;;;1.30;;
48963;SDS011;34776;48.180;16.420;2024-02-26T14:05:27;2.28;;;1.50;;
48963;SDS011;34776;48.180;16.420;2024-02-26T14:07:52;7.95;;;1.55;;
48963;SDS011;34776;48.180;16.420;2024-02-26T14:10:19;2.70;;;1.63;;
48963;SDS011;34776;48.180;16.420;2024-02-26T14:12:45;3.15;;;2.00;;
48963;SDS011;34776;48.180;16.420;2024-02-26T14:15:10;6.63;;;2.00;;
48963;SDS011;34776;48.180;16.420;2024-02-26T14:17:36;2.63;;;1.52;;
48963;SDS011;34776;48.180;16.420;2024-02-26T14:20:04;3.40;;;1.85;;
48963;SDS011;34776;48.180;16.420;2024-02-26T14:22:38;1.83;;;1.52;;
48963;SDS011;34776;48.180;16.420;2024-02-26T14:25:04;1.50;;;1.20;;
48963;SDS011;34776;48.180;16.420;2024-02-26T14:27:29;1.50;;;1.40;;
48963;SDS011;34776;48.180;16.420;2024-02-26T14:29:54;1.88;;;1.20;;
48963;SDS011;34776;48.180;16.420;2024-02-26T14:32:20;2.08;;;1.30;;
48963;SDS011;34776;48.180;16.420;2024-02-26T14:34:45;2.47;;;1.35;;
48963;SDS011;34776;48.180;16.420;2024-02-26T14:37:11;3.40;;;1.60;;